sensor_id;sensor_type;location;lat;lon;timestamp;P1;durP1;ratioP1;P2;durP2;ratioP2
35578;SDS011;21687;48.900;9.188;2024-02-21T00:02:08;9.27;;;4.40;;
35578;SDS011;21687;48.900;9.188;2024-02-21T00:04:35;13.97;;;4.77;;
35578;SDS011;21687;48.900;9.188;2024-02-21T00:07:03;11.20;;;4.43;;
35578;SDS011;21687;48.900;9.188;2024-02-21T00:09:30;13.70;;;4.37;;
35578;SDS011;21687;48.900;9.188;2024-02-21T00:11:56;10.43;;;4.40;;
35578;SDS011;21687;48.900;9.188;2024-02-21T00:14:23;13.13;;;4.83;;
35578;SDS011;21687;48.900;9.188;2024-02-21T00:16:50;13.83;;;4.80;;
35578;SDS011;21687;48.900;9.188;2024-02-21T00:19:16;11.67;;;4.30;;
35578;SDS011;21687;48.900;9.188;2024-02-21T00:21:42;8.73;;;4.03;;
35578;SDS011;21687;48.900;9.188;2024-02-21T00:24:08;12.60;;;4.43;;
35578;SDS011;21687;48.900;9.188;2024-02-21T00:26:35;13.50;;;4.20;;
35578;SDS011;21687;48.900;9.188;2024-02-21T00:29:01;10.57;;;4.53;;
35578;SDS011;21687;48.900;9.188;2024-02-21T00:31:27;11.33;;;4.73;;
35578;SDS011;21687;48.900;9.188;2024-02-21T00:33:54;10.77;;;4.57;;
35578;SDS011;21687;48.900;9.188;2024-02-21T00:36:20;9.63;;;4.00;;
35578;SDS011;21687;48.900;9.188;2024-02-21T00:38:46;9.20;;;4.30;;
35578;SDS011;21687;48.900;9.188;2024-02-21T00:41:12;10.67;;;4.70;;
35578;SDS011;21687;48.900;9.188;2024-02-21T00:43:39;15.17;;;6.43;;
35578;SDS011;21687;48.900;9.188;2024-02-21T00:46:06;11.23;;;4.97;;
35578;SDS011;21687;48.900;9.188;2024-02-21T00:48:33;10.57;;;4.30;;
35578;SDS011;21687;48.900;9.188;2024-02-21T00:50:59;12.30;;;4.20;;
35578;SDS011;21687;48.900;9.188;2024-02-21T00:53:25;15.63;;;5.10;;
35578;SDS011;21687;48.900;9.188;2024-02-21T00:55:52;12.00;;;4.57;;
35578;SDS011;21687;48.900;9.188;2024-02-21T00:58:18;12.20;;;4.87;;
35578;SDS011;21687;48.900;9.188;2024-02-21T01:00:45;13.77;;;4.80;;
35578;SDS011;21687;48.900;9.188;2024-02-21T01:03:11;13.37;;;4.67;;
35578;SDS011;21687;48.900;9.188;2024-02-21T01:05:37;13.60;;;5.20;;
35578;SDS011;21687;48.900;9.188;2024-02-21T01:08:04;10.63;;;4.77;;
35578;SDS011;21687;48.900;9.188;2024-02-21T01:10:31;11.60;;;4.33;;
35578;SDS011;21687;48.900;9.188;2024-02-21T01:12:57;10.20;;;4.70;;
35578;SDS011;21687;48.900;9.188;2024-02-21T01:15:23;11.20;;;4.37;;
35578;SDS011;21687;48.900;9.188;2024-02-21T01:17:50;10.73;;;4.70;;
35578;SDS011;21687;48.900;9.188;2024-02-21T01:20:20;10.17;;;4.63;;
35578;SDS011;21687;48.900;9.188;2024-02-21T01:22:46;13.30;;;4.73;;
35578;SDS011;21687;48.900;9.188;2024-02-21T01:25:13;12.07;;;4.80;;
35578;SDS011;21687;48.900;9.188;2024-02-21T01:27:39;10.33;;;4.27;;
35578;SDS011;21687;48.900;9.188;2024-02-21T01:30:05;8.30;;;4.57;;
35578;SDS011;21687;48.900;9.188;2024-02-21T01:32:32;9.37;;;4.67;;
35578;SDS011;21687;48.900;9.188;2024-02-21T01:34:59;11.87;;;4.57;;
35578;SDS011;21687;48.900;9.188;2024-02-21T01:37:25;10.50;;;4.30;;
35578;SDS011;21687;48.900;9.188;2024-02-21T01:39:51;7.90;;;4.47;;
35578;SDS011;21687;48.900;9.188;2024-02-21T01:42:18;14.17;;;4.77;;
35578;SDS011;21687;48.900;9.188;2024-02-21T01:44:44;15.13;;;4.13;;
35578;SDS011;21687;48.900;9.188;2024-02-21T01:47:10;13.07;;;4.60;;
35578;SDS011;21687;48.900;9.188;2024-02-21T01:49:39;7.40;;;3.60;;
35578;SDS011;21687;48.900;9.188;2024-02-21T01:52:06;16.80;;;4.13;;
35578;SDS011;21687;48.900;9.188;2024-02-21T01:54:33;12.43;;;5.30;;
35578;SDS011;21687;48.900;9.188;2024-02-21T01:56:59;12.07;;;5.23;;
35578;SDS011;21687;48.900;9.188;2024-02-21T01:59:26;11.73;;;4.20;;
35578;SDS011;21687;48.900;9.188;2024-02-21T02:01:53;9.57;;;3.70;;
35578;SDS011;21687;48.900;9.188;2024-02-21T02:04:22;11.30;;;3.63;;
35578;SDS011;21687;48.900;9.188;2024-02-21T02:06:50;13.07;;;4.30;;
35578;SDS011;21687;48.900;9.188;2024-02-21T02:09:18;13.67;;;4.30;;
35578;SDS011;21687;48.900;9.188;2024-02-21T02:11:44;11.20;;;4.60;;
35578;SDS011;21687;48.900;9.188;2024-02-21T02:14:11;12.00;;;4.27;;
35578;SDS011;21687;48.900;9.188;2024-02-21T02:16:37;11.50;;;4.50;;
35578;SDS011;21687;48.900;9.188;2024-02-21T02:19:03;10.93;;;3.97;;
35578;SDS011;21687;48.900;9.188;2024-02-21T02:21:31;10.77;;;4.33;;
35578;SDS011;21687;48.900;9.188;2024-02-21T02:24:04;10.17;;;4.17;;
35578;SDS011;21687;48.900;9.188;2024-02-21T02:26:31;11.27;;;3.93;;
35578;SDS011;21687;48.900;9.188;2024-02-21T02:28:58;11.10;;;3.60;;
35578;SDS011;21687;48.900;9.188;2024-02-21T02:31:26;8.07;;;3.50;;
35578;SDS011;21687;48.900;9.188;2024-02-21T02:33:52;9.20;;;3.47;;
35578;SDS011;21687;48.900;9.188;2024-02-21T02:36:19;12.03;;;4.63;;
35578;SDS011;21687;48.900;9.188;2024-02-21T02:38:45;9.73;;;3.87;;
35578;SDS011;21687;48.900;9.188;2024-02-21T02:41:11;12.73;;;3.67;;
35578;SDS011;21687;48.900;9.188;2024-02-21T02:43:37;10.20;;;3.80;;
35578;SDS011;21687;48.900;9.188;2024-02-21T02:46:04;10.60;;;3.30;;
35578;SDS011;21687;48.900;9.188;2024-02-21T02:48:30;7.57;;;3.53;;
35578;SDS011;21687;48.900;9.188;2024-02-21T02:50:56;12.43;;;4.00;;
35578;SDS011;21687;48.900;9.188;2024-02-21T02:53:23;12.83;;;5.00;;
35578;SDS011;21687;48.900;9.188;2024-02-21T02:55:49;12.90;;;4.50;;
35578;SDS011;21687;48.900;9.188;2024-02-21T02:58:15;11.33;;;3.83;;
35578;SDS011;21687;48.900;9.188;2024-02-21T03:00:42;10.77;;;3.87;;
35578;SDS011;21687;48.900;9.188;2024-02-21T03:03:08;13.83;;;3.80;;
35578;SDS011;21687;48.900;9.188;2024-02-21T03:05:34;7.97;;;3.70;;
35578;SDS011;21687;48.900;9.188;2024-02-21T03:08:01;8.97;;;4.00;;
35578;SDS011;21687;48.900;9.188;2024-02-21T03:10:31;10.60;;;4.77;;
35578;SDS011;21687;48.900;9.188;2024-02-21T03:12:58;13.23;;;4.30;;
35578;SDS011;21687;48.900;9.188;2024-02-21T03:15:24;10.63;;;5.07;;
35578;SDS011;21687;48.900;9.188;2024-02-21T03:17:51;11.30;;;4.77;;
35578;SDS011;21687;48.900;9.188;2024-02-21T03:20:18;8.33;;;4.07;;
35578;SDS011;21687;48.900;9.188;2024-02-21T03:22:45;6.97;;;4.33;;
35578;SDS011;21687;48.900;9.188;2024-02-21T03:25:11;12.67;;;4.13;;
35578;SDS011;21687;48.900;9.188;2024-02-21T03:27:39;12.60;;;4.40;;
35578;SDS011;21687;48.900;9.188;2024-02-21T03:30:06;14.70;;;5.07;;
35578;SDS011;21687;48.900;9.188;2024-02-21T03:32:32;11.10;;;4.73;;
35578;SDS011;21687;48.900;9.188;2024-02-21T03:34:59;12.30;;;4.67;;
35578;SDS011;21687;48.900;9.188;2024-02-21T03:37:25;8.17;;;4.40;;
35578;SDS011;21687;48.900;9.188;2024-02-21T03:39:52;8.63;;;4.37;;
35578;SDS011;21687;48.900;9.188;2024-02-21T03:42:18;9.97;;;4.47;;
35578;SDS011;21687;48.900;9.188;2024-02-21T03:44:44;9.27;;;4.60;;
35578;SDS011;21687;48.900;9.188;2024-02-21T03:47:11;13.00;;;4.80;;
35578;SDS011;21687;48.900;9.188;2024-02-21T03:49:37;14.33;;;4.50;;
35578;SDS011;21687;48.900;9.188;2024-02-21T03:52:03;15.13;;;4.80;;
35578;SDS011;21687;48.900;9.188;2024-02-21T03:54:30;12.93;;;4.97;;
35578;SDS011;21687;48.900;9.188;2024-02-21T03:56:56;10.80;;;4.70;;
35578;SDS011;21687;48.900;9.188;2024-02-21T03:59:23;13.87;;;4.77;;
35578;SDS011;21687;48.900;9.188;2024-02-21T04:01:52;10.77;;;4.80;;
35578;SDS011;21687;48.900;9.188;2024-02-21T04:04:19;14.67;;;5.33;;
35578;SDS011;21687;48.900;9.188;2024-02-21T04:06:48;10.67;;;4.87;;
35578;SDS011;21687;48.900;9.188;2024-02-21T04:09:15;6.90;;;4.70;;
35578;SDS011;21687;48.900;9.188;2024-02-21T04:11:41;12.23;;;6.00;;
35578;SDS011;21687;48.900;9.188;2024-02-21T04:14:08;13.40;;;4.67;;
35578;SDS011;21687;48.900;9.188;2024-02-21T04:16:36;15.00;;;6.10;;
35578;SDS011;21687;48.900;9.188;2024-02-21T04:19:03;16.23;;;5.97;;
35578;SDS011;21687;48.900;9.188;2024-02-21T04:21:29;11.43;;;5.60;;
35578;SDS011;21687;48.900;9.188;2024-02-21T04:23:55;14.40;;;5.47;;
35578;SDS011;21687;48.900;9.188;2024-02-21T04:26:22;14.70;;;5.30;;
35578;SDS011;21687;48.900;9.188;2024-02-21T04:28:48;12.23;;;5.00;;
35578;SDS011;21687;48.900;9.188;2024-02-21T04:31:14;13.73;;;5.73;;
35578;SDS011;21687;48.900;9.188;2024-02-21T04:33:41;17.00;;;7.13;;
35578;SDS011;21687;48.900;9.188;2024-02-21T04:36:07;16.03;;;5.30;;
35578;SDS011;21687;48.900;9.188;2024-02-21T04:38:34;13.57;;;6.13;;
35578;SDS011;21687;48.900;9.188;2024-02-21T04:41:00;12.57;;;5.63;;
35578;SDS011;21687;48.900;9.188;2024-02-21T04:43:27;9.43;;;5.20;;
35578;SDS011;21687;48.900;9.188;2024-02-21T04:45:53;10.40;;;4.90;;
35578;SDS011;21687;48.900;9.188;2024-02-21T04:48:19;13.83;;;5.27;;
35578;SDS011;21687;48.900;9.188;2024-02-21T04:50:46;16.37;;;6.20;;
35578;SDS011;21687;48.900;9.188;2024-02-21T04:53:12;13.00;;;5.67;;
35578;SDS011;21687;48.900;9.188;2024-02-21T04:55:38;20.10;;;6.37;;
35578;SDS011;21687;48.900;9.188;2024-02-21T04:58:05;14.17;;;6.70;;
35578;SDS011;21687;48.900;9.188;2024-02-21T05:00:31;20.43;;;7.50;;
35578;SDS011;21687;48.900;9.188;2024-02-21T05:02:59;13.33;;;6.07;;
35578;SDS011;21687;48.900;9.188;2024-02-21T05:05:25;13.47;;;6.13;;
35578;SDS011;21687;48.900;9.188;2024-02-21T05:07:51;9.90;;;5.60;;
35578;SDS011;21687;48.900;9.188;2024-02-21T05:10:17;13.23;;;6.13;;
35578;SDS011;21687;48.900;9.188;2024-02-21T05:12:44;19.00;;;6.23;;
35578;SDS011;21687;48.900;9.188;2024-02-21T05:15:11;15.20;;;5.50;;
35578;SDS011;21687;48.900;9.188;2024-02-21T05:17:38;14.70;;;6.20;;
35578;SDS011;21687;48.900;9.188;2024-02-21T05:20:04;14.83;;;6.33;;
35578;SDS011;21687;48.900;9.188;2024-02-21T05:22:31;14.97;;;6.10;;
35578;SDS011;21687;48.900;9.188;2024-02-21T05:24:57;14.23;;;5.87;;
35578;SDS011;21687;48.900;9.188;2024-02-21T05:27:23;13.33;;;6.77;;
35578;SDS011;21687;48.900;9.188;2024-02-21T05:29:50;12.57;;;6.23;;
35578;SDS011;21687;48.900;9.188;2024-02-21T05:32:16;17.03;;;6.77;;
35578;SDS011;21687;48.900;9.188;2024-02-21T05:34:42;15.93;;;7.23;;
35578;SDS011;21687;48.900;9.188;2024-02-21T05:37:08;18.47;;;6.80;;
35578;SDS011;21687;48.900;9.188;2024-02-21T05:39:35;16.43;;;7.30;;
35578;SDS011;21687;48.900;9.188;2024-02-21T05:42:01;20.93;;;6.57;;
35578;SDS011;21687;48.900;9.188;2024-02-21T05:44:27;18.50;;;7.20;;
35578;SDS011;21687;48.900;9.188;2024-02-21T05:46:54;17.30;;;8.33;;
35578;SDS011;21687;48.900;9.188;2024-02-21T05:49:20;19.10;;;9.10;;
35578;SDS011;21687;48.900;9.188;2024-02-21T05:51:46;17.23;;;10.97;;
35578;SDS011;21687;48.900;9.188;2024-02-21T05:54:13;16.97;;;8.30;;
35578;SDS011;21687;48.900;9.188;2024-02-21T05:56:43;15.13;;;7.23;;
35578;SDS011;21687;48.900;9.188;2024-02-21T05:59:11;14.93;;;8.53;;
35578;SDS011;21687;48.900;9.188;2024-02-21T06:01:38;14.73;;;6.80;;
35578;SDS011;21687;48.900;9.188;2024-02-21T06:04:05;14.63;;;7.27;;
35578;SDS011;21687;48.900;9.188;2024-02-21T06:06:31;17.13;;;10.17;;
35578;SDS011;21687;48.900;9.188;2024-02-21T06:08:58;18.43;;;10.00;;
35578;SDS011;21687;48.900;9.188;2024-02-21T06:11:25;15.13;;;7.07;;
35578;SDS011;21687;48.900;9.188;2024-02-21T06:13:51;9.47;;;5.93;;
35578;SDS011;21687;48.900;9.188;2024-02-21T06:16:18;12.97;;;5.80;;
35578;SDS011;21687;48.900;9.188;2024-02-21T06:18:44;13.50;;;5.70;;
35578;SDS011;21687;48.900;9.188;2024-02-21T06:21:10;12.67;;;5.77;;
35578;SDS011;21687;48.900;9.188;2024-02-21T06:23:37;13.50;;;5.47;;
35578;SDS011;21687;48.900;9.188;2024-02-21T06:26:03;16.00;;;6.60;;
35578;SDS011;21687;48.900;9.188;2024-02-21T06:28:30;14.80;;;6.47;;
35578;SDS011;21687;48.900;9.188;2024-02-21T06:30:56;13.90;;;6.03;;
35578;SDS011;21687;48.900;9.188;2024-02-21T06:33:22;13.13;;;6.40;;
35578;SDS011;21687;48.900;9.188;2024-02-21T06:35:50;10.93;;;5.50;;
35578;SDS011;21687;48.900;9.188;2024-02-21T06:38:18;10.93;;;5.60;;
35578;SDS011;21687;48.900;9.188;2024-02-21T06:40:45;12.00;;;5.50;;
35578;SDS011;21687;48.900;9.188;2024-02-21T06:43:16;12.37;;;5.47;;
35578;SDS011;21687;48.900;9.188;2024-02-21T06:45:44;20.83;;;6.47;;
35578;SDS011;21687;48.900;9.188;2024-02-21T06:48:12;12.33;;;5.97;;
35578;SDS011;21687;48.900;9.188;2024-02-21T06:50:39;16.13;;;6.90;;
35578;SDS011;21687;48.900;9.188;2024-02-21T06:53:05;11.83;;;6.23;;
35578;SDS011;21687;48.900;9.188;2024-02-21T06:55:32;9.93;;;5.37;;
35578;SDS011;21687;48.900;9.188;2024-02-21T06:57:59;15.50;;;6.40;;
35578;SDS011;21687;48.900;9.188;2024-02-21T07:00:28;10.33;;;5.37;;
35578;SDS011;21687;48.900;9.188;2024-02-21T07:02:54;9.43;;;5.00;;
35578;SDS011;21687;48.900;9.188;2024-02-21T07:05:21;14.40;;;6.33;;
35578;SDS011;21687;48.900;9.188;2024-02-21T07:07:47;10.73;;;5.33;;
35578;SDS011;21687;48.900;9.188;2024-02-21T07:10:13;10.23;;;4.50;;
35578;SDS011;21687;48.900;9.188;2024-02-21T07:12:40;8.40;;;4.93;;
35578;SDS011;21687;48.900;9.188;2024-02-21T07:15:08;9.80;;;5.37;;
35578;SDS011;21687;48.900;9.188;2024-02-21T07:17:34;14.57;;;5.27;;
35578;SDS011;21687;48.900;9.188;2024-02-21T07:20:01;9.57;;;4.33;;
35578;SDS011;21687;48.900;9.188;2024-02-21T07:22:28;9.40;;;4.60;;
35578;SDS011;21687;48.900;9.188;2024-02-21T07:24:55;8.97;;;4.90;;
35578;SDS011;21687;48.900;9.188;2024-02-21T07:27:21;10.40;;;4.80;;
35578;SDS011;21687;48.900;9.188;2024-02-21T07:29:47;10.47;;;4.93;;
35578;SDS011;21687;48.900;9.188;2024-02-21T07:32:14;9.63;;;4.63;;
35578;SDS011;21687;48.900;9.188;2024-02-21T07:34:45;12.27;;;5.70;;
35578;SDS011;21687;48.900;9.188;2024-02-21T07:37:11;13.53;;;5.73;;
35578;SDS011;21687;48.900;9.188;2024-02-21T07:39:38;13.17;;;5.10;;
35578;SDS011;21687;48.900;9.188;2024-02-21T07:42:04;12.13;;;5.27;;
35578;SDS011;21687;48.900;9.188;2024-02-21T07:44:32;11.77;;;4.83;;
35578;SDS011;21687;48.900;9.188;2024-02-21T07:46:59;11.63;;;5.23;;
35578;SDS011;21687;48.900;9.188;2024-02-21T07:49:26;12.60;;;4.40;;
35578;SDS011;21687;48.900;9.188;2024-02-21T07:51:52;10.17;;;4.10;;
35578;SDS011;21687;48.900;9.188;2024-02-21T07:54:18;11.47;;;4.07;;
35578;SDS011;21687;48.900;9.188;2024-02-21T07:56:45;10.70;;;4.07;;
35578;SDS011;21687;48.900;9.188;2024-02-21T07:59:12;11.73;;;4.00;;
35578;SDS011;21687;48.900;9.188;2024-02-21T08:01:40;13.37;;;4.83;;
35578;SDS011;21687;48.900;9.188;2024-02-21T08:04:06;12.97;;;4.03;;
35578;SDS011;21687;48.900;9.188;2024-02-21T08:06:32;7.33;;;3.57;;
35578;SDS011;21687;48.900;9.188;2024-02-21T08:08:59;9.83;;;3.97;;
35578;SDS011;21687;48.900;9.188;2024-02-21T08:11:25;13.13;;;4.00;;
35578;SDS011;21687;48.900;9.188;2024-02-21T08:13:52;7.90;;;3.43;;
35578;SDS011;21687;48.900;9.188;2024-02-21T08:16:18;9.90;;;3.67;;
35578;SDS011;21687;48.900;9.188;2024-02-21T08:18:44;10.17;;;3.37;;
35578;SDS011;21687;48.900;9.188;2024-02-21T08:21:11;8.03;;;3.00;;
35578;SDS011;21687;48.900;9.188;2024-02-21T08:23:37;9.40;;;3.20;;
35578;SDS011;21687;48.900;9.188;2024-02-21T08:26:03;7.77;;;3.10;;
35578;SDS011;21687;48.900;9.188;2024-02-21T08:28:30;7.00;;;2.90;;
35578;SDS011;21687;48.900;9.188;2024-02-21T08:30:56;7.03;;;2.87;;
35578;SDS011;21687;48.900;9.188;2024-02-21T08:33:23;6.57;;;2.87;;
35578;SDS011;21687;48.900;9.188;2024-02-21T08:35:53;4.20;;;1.90;;
35578;SDS011;21687;48.900;9.188;2024-02-21T08:38:19;6.97;;;2.40;;
35578;SDS011;21687;48.900;9.188;2024-02-21T08:40:45;9.70;;;3.13;;
35578;SDS011;21687;48.900;9.188;2024-02-21T08:43:11;10.13;;;2.70;;
35578;SDS011;21687;48.900;9.188;2024-02-21T08:45:38;5.97;;;2.43;;
35578;SDS011;21687;48.900;9.188;2024-02-21T08:48:04;7.07;;;2.50;;
35578;SDS011;21687;48.900;9.188;2024-02-21T08:50:31;6.73;;;2.70;;
35578;SDS011;21687;48.900;9.188;2024-02-21T08:52:57;6.40;;;2.67;;
35578;SDS011;21687;48.900;9.188;2024-02-21T08:55:23;5.10;;;2.57;;
35578;SDS011;21687;48.900;9.188;2024-02-21T08:57:50;6.17;;;2.43;;
35578;SDS011;21687;48.900;9.188;2024-02-21T09:00:16;10.03;;;2.67;;
35578;SDS011;21687;48.900;9.188;2024-02-21T09:02:43;9.63;;;3.07;;
35578;SDS011;21687;48.900;9.188;2024-02-21T09:05:09;10.67;;;2.20;;
35578;SDS011;21687;48.900;9.188;2024-02-21T09:07:36;6.73;;;2.20;;
35578;SDS011;21687;48.900;9.188;2024-02-21T09:10:02;8.33;;;2.87;;
35578;SDS011;21687;48.900;9.188;2024-02-21T09:12:29;8.07;;;2.50;;
35578;SDS011;21687;48.900;9.188;2024-02-21T09:14:55;4.70;;;2.40;;
35578;SDS011;21687;48.900;9.188;2024-02-21T09:17:21;7.43;;;2.40;;
35578;SDS011;21687;48.900;9.188;2024-02-21T09:19:48;8.67;;;2.93;;
35578;SDS011;21687;48.900;9.188;2024-02-21T09:22:14;7.27;;;3.20;;
35578;SDS011;21687;48.900;9.188;2024-02-21T09:24:40;5.83;;;2.47;;
35578;SDS011;21687;48.900;9.188;2024-02-21T09:27:07;7.73;;;2.70;;
35578;SDS011;21687;48.900;9.188;2024-02-21T09:29:33;5.47;;;2.33;;
35578;SDS011;21687;48.900;9.188;2024-02-21T09:31:59;6.27;;;2.43;;
35578;SDS011;21687;48.900;9.188;2024-02-21T09:34:28;8.67;;;2.60;;
35578;SDS011;21687;48.900;9.188;2024-02-21T09:36:55;8.30;;;2.30;;
35578;SDS011;21687;48.900;9.188;2024-02-21T09:39:21;9.03;;;2.33;;
35578;SDS011;21687;48.900;9.188;2024-02-21T09:41:50;9.53;;;2.57;;
35578;SDS011;21687;48.900;9.188;2024-02-21T09:44:24;6.43;;;2.90;;
35578;SDS011;21687;48.900;9.188;2024-02-21T09:47:00;6.77;;;2.23;;
35578;SDS011;21687;48.900;9.188;2024-02-21T09:49:33;9.40;;;3.17;;
35578;SDS011;21687;48.900;9.188;2024-02-21T09:52:04;7.00;;;2.37;;
35578;SDS011;21687;48.900;9.188;2024-02-21T09:54:32;7.03;;;2.30;;
35578;SDS011;21687;48.900;9.188;2024-02-21T09:57:00;5.60;;;2.17;;
35578;SDS011;21687;48.900;9.188;2024-02-21T09:59:27;6.37;;;2.43;;
35578;SDS011;21687;48.900;9.188;2024-02-21T10:01:55;6.03;;;2.30;;
35578;SDS011;21687;48.900;9.188;2024-02-21T10:04:22;8.93;;;2.60;;
35578;SDS011;21687;48.900;9.188;2024-02-21T10:06:49;5.20;;;2.37;;
35578;SDS011;21687;48.900;9.188;2024-02-21T10:09:25;7.67;;;2.43;;
35578;SDS011;21687;48.900;9.188;2024-02-21T10:11:53;11.23;;;2.77;;
35578;SDS011;21687;48.900;9.188;2024-02-21T10:14:20;4.67;;;1.90;;
35578;SDS011;21687;48.900;9.188;2024-02-21T10:16:56;7.23;;;2.30;;
35578;SDS011;21687;48.900;9.188;2024-02-21T10:19:26;6.43;;;2.27;;
35578;SDS011;21687;48.900;9.188;2024-02-21T10:22:02;5.03;;;2.13;;
35578;SDS011;21687;48.900;9.188;2024-02-21T10:24:35;6.87;;;2.07;;
35578;SDS011;21687;48.900;9.188;2024-02-21T10:27:06;5.30;;;2.30;;
35578;SDS011;21687;48.900;9.188;2024-02-21T10:29:34;6.50;;;2.33;;
35578;SDS011;21687;48.900;9.188;2024-02-21T10:34:38;7.77;;;2.20;;
35578;SDS011;21687;48.900;9.188;2024-02-21T10:37:06;6.87;;;2.37;;
35578;SDS011;21687;48.900;9.188;2024-02-21T10:39:34;5.27;;;2.20;;
35578;SDS011;21687;48.900;9.188;2024-02-21T10:42:04;7.97;;;2.20;;
35578;SDS011;21687;48.900;9.188;2024-02-21T10:44:36;7.10;;;2.40;;
35578;SDS011;21687;48.900;9.188;2024-02-21T10:47:07;5.30;;;2.20;;
35578;SDS011;21687;48.900;9.188;2024-02-21T10:49:41;7.00;;;2.73;;
35578;SDS011;21687;48.900;9.188;2024-02-21T10:55:03;6.20;;;2.17;;
35578;SDS011;21687;48.900;9.188;2024-02-21T10:57:34;7.77;;;2.50;;
35578;SDS011;21687;48.900;9.188;2024-02-21T11:00:03;6.47;;;2.30;;
35578;SDS011;21687;48.900;9.188;2024-02-21T11:02:33;6.30;;;2.20;;
35578;SDS011;21687;48.900;9.188;2024-02-21T11:05:01;7.57;;;2.43;;
35578;SDS011;21687;48.900;9.188;2024-02-21T11:07:30;8.40;;;2.43;;
35578;SDS011;21687;48.900;9.188;2024-02-21T11:09:58;8.07;;;2.20;;
35578;SDS011;21687;48.900;9.188;2024-02-21T11:12:25;7.60;;;2.20;;
35578;SDS011;21687;48.900;9.188;2024-02-21T11:14:52;8.10;;;2.10;;
35578;SDS011;21687;48.900;9.188;2024-02-21T11:17:29;6.70;;;2.00;;
35578;SDS011;21687;48.900;9.188;2024-02-21T11:19:56;9.30;;;3.33;;
35578;SDS011;21687;48.900;9.188;2024-02-21T11:22:22;8.87;;;2.87;;
35578;SDS011;21687;48.900;9.188;2024-02-21T11:24:49;3.57;;;2.00;;
35578;SDS011;21687;48.900;9.188;2024-02-21T11:27:18;7.80;;;2.80;;
35578;SDS011;21687;48.900;9.188;2024-02-21T11:29:47;8.77;;;3.10;;
35578;SDS011;21687;48.900;9.188;2024-02-21T11:32:18;6.20;;;2.53;;
35578;SDS011;21687;48.900;9.188;2024-02-21T11:37:29;7.67;;;2.67;;
35578;SDS011;21687;48.900;9.188;2024-02-21T11:39:58;6.50;;;2.00;;
35578;SDS011;21687;48.900;9.188;2024-02-21T11:42:28;4.97;;;2.20;;
35578;SDS011;21687;48.900;9.188;2024-02-21T11:44:59;12.13;;;2.80;;
35578;SDS011;21687;48.900;9.188;2024-02-21T11:47:28;5.47;;;2.27;;
35578;SDS011;21687;48.900;9.188;2024-02-21T11:49:54;7.33;;;2.50;;
35578;SDS011;21687;48.900;9.188;2024-02-21T11:52:21;6.50;;;2.40;;
35578;SDS011;21687;48.900;9.188;2024-02-21T11:54:50;6.53;;;2.90;;
35578;SDS011;21687;48.900;9.188;2024-02-21T11:57:17;9.60;;;2.50;;
35578;SDS011;21687;48.900;9.188;2024-02-21T11:59:44;6.37;;;2.20;;
35578;SDS011;21687;48.900;9.188;2024-02-21T12:02:12;4.70;;;2.60;;
35578;SDS011;21687;48.900;9.188;2024-02-21T12:04:39;8.70;;;2.17;;
35578;SDS011;21687;48.900;9.188;2024-02-21T12:07:05;8.23;;;2.80;;
35578;SDS011;21687;48.900;9.188;2024-02-21T12:13:04;5.27;;;2.10;;
35578;SDS011;21687;48.900;9.188;2024-02-21T12:15:32;6.63;;;2.13;;
35578;SDS011;21687;48.900;9.188;2024-02-21T12:17:59;3.33;;;1.70;;
35578;SDS011;21687;48.900;9.188;2024-02-21T12:20:25;6.53;;;2.07;;
35578;SDS011;21687;48.900;9.188;2024-02-21T12:22:52;8.20;;;2.60;;
35578;SDS011;21687;48.900;9.188;2024-02-21T12:25:19;3.47;;;1.77;;
35578;SDS011;21687;48.900;9.188;2024-02-21T12:27:53;5.30;;;2.00;;
35578;SDS011;21687;48.900;9.188;2024-02-21T12:30:21;6.03;;;2.20;;
35578;SDS011;21687;48.900;9.188;2024-02-21T12:32:48;5.10;;;2.33;;
35578;SDS011;21687;48.900;9.188;2024-02-21T12:35:14;4.07;;;2.03;;
35578;SDS011;21687;48.900;9.188;2024-02-21T12:37:44;4.10;;;1.90;;
35578;SDS011;21687;48.900;9.188;2024-02-21T12:40:10;3.40;;;2.00;;
35578;SDS011;21687;48.900;9.188;2024-02-21T12:42:38;7.47;;;2.60;;
35578;SDS011;21687;48.900;9.188;2024-02-21T12:45:04;5.10;;;1.77;;
35578;SDS011;21687;48.900;9.188;2024-02-21T12:47:31;16.23;;;13.73;;
35578;SDS011;21687;48.900;9.188;2024-02-21T12:49:57;8.20;;;5.67;;
35578;SDS011;21687;48.900;9.188;2024-02-21T12:52:23;7.47;;;4.33;;
35578;SDS011;21687;48.900;9.188;2024-02-21T12:54:50;4.87;;;3.23;;
35578;SDS011;21687;48.900;9.188;2024-02-21T12:57:16;4.93;;;1.90;;
35578;SDS011;21687;48.900;9.188;2024-02-21T12:59:43;5.23;;;2.03;;
35578;SDS011;21687;48.900;9.188;2024-02-21T13:02:09;6.97;;;2.40;;
35578;SDS011;21687;48.900;9.188;2024-02-21T13:04:35;4.57;;;2.30;;
35578;SDS011;21687;48.900;9.188;2024-02-21T13:07:05;4.60;;;2.60;;
35578;SDS011;21687;48.900;9.188;2024-02-21T13:09:32;5.00;;;2.67;;
35578;SDS011;21687;48.900;9.188;2024-02-21T13:11:58;5.70;;;2.80;;
35578;SDS011;21687;48.900;9.188;2024-02-21T13:14:25;4.63;;;2.37;;
35578;SDS011;21687;48.900;9.188;2024-02-21T13:16:51;3.93;;;1.90;;
35578;SDS011;21687;48.900;9.188;2024-02-21T13:19:17;6.27;;;2.87;;
35578;SDS011;21687;48.900;9.188;2024-02-21T13:21:44;3.47;;;2.10;;
35578;SDS011;21687;48.900;9.188;2024-02-21T13:24:10;7.00;;;2.10;;
35578;SDS011;21687;48.900;9.188;2024-02-21T13:26:36;4.90;;;2.00;;
35578;SDS011;21687;48.900;9.188;2024-02-21T13:29:03;5.67;;;2.10;;
35578;SDS011;21687;48.900;9.188;2024-02-21T13:31:29;3.90;;;1.70;;
35578;SDS011;21687;48.900;9.188;2024-02-21T13:33:55;6.60;;;2.30;;
35578;SDS011;21687;48.900;9.188;2024-02-21T13:36:21;3.63;;;2.00;;
35578;SDS011;21687;48.900;9.188;2024-02-21T13:38:48;4.73;;;2.20;;
35578;SDS011;21687;48.900;9.188;2024-02-21T13:41:16;4.30;;;2.10;;
35578;SDS011;21687;48.900;9.188;2024-02-21T13:43:42;5.07;;;2.23;;
35578;SDS011;21687;48.900;9.188;2024-02-21T13:46:11;6.40;;;2.50;;
35578;SDS011;21687;48.900;9.188;2024-02-21T13:48:38;5.30;;;2.43;;
35578;SDS011;21687;48.900;9.188;2024-02-21T13:51:04;11.93;;;3.30;;
35578;SDS011;21687;48.900;9.188;2024-02-21T13:53:30;8.80;;;2.13;;
35578;SDS011;21687;48.900;9.188;2024-02-21T13:55:57;7.80;;;2.40;;
35578;SDS011;21687;48.900;9.188;2024-02-21T13:58:23;7.53;;;2.30;;
35578;SDS011;21687;48.900;9.188;2024-02-21T14:00:51;8.50;;;2.80;;
35578;SDS011;21687;48.900;9.188;2024-02-21T14:03:17;6.73;;;2.43;;
35578;SDS011;21687;48.900;9.188;2024-02-21T14:05:45;5.77;;;2.07;;
35578;SDS011;21687;48.900;9.188;2024-02-21T14:08:13;7.57;;;2.40;;
35578;SDS011;21687;48.900;9.188;2024-02-21T14:10:40;4.83;;;2.20;;
35578;SDS011;21687;48.900;9.188;2024-02-21T14:13:06;8.20;;;2.50;;
35578;SDS011;21687;48.900;9.188;2024-02-21T14:15:32;6.10;;;2.30;;
35578;SDS011;21687;48.900;9.188;2024-02-21T14:17:58;8.87;;;2.43;;
35578;SDS011;21687;48.900;9.188;2024-02-21T14:20:25;7.13;;;2.40;;
35578;SDS011;21687;48.900;9.188;2024-02-21T14:22:51;6.03;;;2.40;;
35578;SDS011;21687;48.900;9.188;2024-02-21T14:25:18;8.13;;;2.23;;
35578;SDS011;21687;48.900;9.188;2024-02-21T14:27:44;8.53;;;2.30;;
35578;SDS011;21687;48.900;9.188;2024-02-21T14:30:10;7.83;;;2.70;;
35578;SDS011;21687;48.900;9.188;2024-02-21T14:32:37;6.70;;;2.53;;
35578;SDS011;21687;48.900;9.188;2024-02-21T14:35:05;6.90;;;2.30;;
35578;SDS011;21687;48.900;9.188;2024-02-21T14:37:31;10.00;;;2.73;;
35578;SDS011;21687;48.900;9.188;2024-02-21T14:39:58;6.37;;;2.20;;
35578;SDS011;21687;48.900;9.188;2024-02-21T14:42:25;14.33;;;3.27;;
35578;SDS011;21687;48.900;9.188;2024-02-21T14:44:51;9.27;;;2.30;;
35578;SDS011;21687;48.900;9.188;2024-02-21T14:47:18;10.57;;;2.97;;
35578;SDS011;21687;48.900;9.188;2024-02-21T14:49:44;9.53;;;2.97;;
35578;SDS011;21687;48.900;9.188;2024-02-21T14:52:10;5.57;;;2.50;;